Time;durP1;ratioP1;P1;durP2;ratioP2;P2;SDS_P1;SDS_P2;PMS_P1;PMS_P2;Temp;Humidity;BMP_temperature;BMP_pressure;BME280_temperature;BME280_humidity;BME280_pressure;Samples;Min_cycle;Max_cycle;Signal;HPM_P1;HPM_P2
2024/02/11 00:00:18;;;;;;;;;;;;;;;;;;4181126;28;20446;-58
2024/02/11 00:02:20;;;;;;;;;;;;;;;;;;4177574;28;19943;-58
2024/02/11 00:04:21;;;;;;;;;;;;;;;;;;4180186;28;19931;-58
2024/02/11 00:06:24;;;;;;;;;;;;;;;;;;4180968;28;19920;-57
2024/02/11 00:08:25;;;;;;;;;;;;;;;;;;4180959;28;19925;-57
2024/02/11 00:10:27;;;;;;;;;;;;;;;;;;4180748;28;19921;-57
2024/02/11 00:12:30;;;;;;;;;;;;;;;;;;4181033;28;19929;-58
2024/02/11 00:14:32;;;;;;;;;;;;;;;;;;4180782;28;19931;-57
2024/02/11 00:16:33;;;;;;;;;;;;;;;;;;4180943;28;19979;-58
2024/02/11 00:18:35;;;;;;;;;;;;;;;;;;4180762;28;19975;-58
2024/02/11 00:20:37;;;;;;;;;;;;;;;;;;4180608;28;19921;-57
2024/02/11 00:22:39;;;;;;;;;;;;;;;;;;4181076;28;20293;-57
2024/02/11 00:24:40;;;;;;;;;;;;;;;;;;4181113;28;20406;-58
2024/02/11 00:26:42;;;;;;;;;;;;;;;;;;4170704;28;19921;-58
2024/02/11 00:28:43;;;;;;;;;;;;;;;;;;4179610;28;19971;-58
2024/02/11 00:30:45;;;;;;;;;;;;;;;;;;4164288;28;19925;-58
2024/02/11 00:32:46;;;;;;;;;;;;;;;;;;4164148;28;19944;-58
2024/02/11 00:34:48;;;;;;;;;;;;;;;;;;4164254;28;20331;-57
2024/02/11 00:36:49;;;;;;;;;;;;;;;;;;4164117;28;19921;-58
2024/02/11 00:38:53;;;;;;;;;;;;;;;;;;4162901;28;20355;-57
2024/02/11 00:40:55;;;;;;;;;;;;;;;;;;4165278;28;20395;-57
2024/02/11 00:42:59;;;;;;;;;;;;;;;;;;4167525;28;19925;-57
2024/02/11 00:45:01;;;;;;;;;;;;;;;;;;4167607;28;19931;-57
2024/02/11 00:47:03;;;;;;;;;;;;;;;;;;4167454;28;20285;-57
2024/02/11 00:49:04;;;;;;;;;;;;;;;;;;4167680;28;19928;-57
2024/02/11 00:51:06;;;;;;;;;;;;;;;;;;4167364;28;19925;-58
2024/02/11 00:53:08;;;;;;;;;;;;;;;;;;4179117;28;19924;-58
2024/02/11 00:55:09;;;;;;;;;;;;;;;;;;4183677;28;19929;-57
2024/02/11 00:57:10;;;;;;;;;;;;;;;;;;4183511;28;20416;-58
2024/02/11 00:59:14;;;;;;;;;;;;;;;;;;4195083;28;19921;-57
2024/02/11 01:01:16;;;;;;;;;;;;;;;;;;4198953;28;19943;-58
2024/02/11 01:03:18;;;;;;;;;;;;;;;;;;4200179;28;20019;-57
2024/02/11 01:05:21;;;;;;;;;;;;;;;;;;4196007;28;19935;-57
2024/02/11 01:07:23;;;;;;;;;;;;;;;;;;4182291;28;19920;-57
2024/02/11 01:09:24;;;;;;;;;;;;;;;;;;4183657;28;19927;-58
2024/02/11 01:11:26;;;;;;;;;;;;;;;;;;4182543;28;19959;-58
2024/02/11 01:13:27;;;;;;;;;;;;;;;;;;4183720;28;19920;-58
2024/02/11 01:15:29;;;;;;;;;;;;;;;;;;4183637;28;19924;-57
2024/02/11 01:17:30;;;;;;;;;;;;;;;;;;4182244;28;20019;-57
2024/02/11 01:19:32;;;;;;;;;;;;;;;;;;4183399;28;19956;-57
2024/02/11 01:21:33;;;;;;;;;;;;;;;;;;4183605;28;19931;-57
2024/02/11 01:23:35;;;;;;;;;;;;;;;;;;4183415;28;20339;-58
2024/02/11 01:25:36;;;;;;;;;;;;;;;;;;4183487;28;19924;-58
2024/02/11 01:27:38;;;;;;;;;;;;;;;;;;4183601;28;19943;-57
2024/02/11 01:29:40;;;;;;;;;;;;;;;;;;4183494;28;19924;-57
2024/02/11 01:31:41;;;;;;;;;;;;;;;;;;4183454;28;19960;-57
2024/02/11 01:33:43;;;;;;;;;;;;;;;;;;4182079;28;19921;-57
2024/02/11 01:35:45;;;;;;;;;;;;;;;;;;4182370;28;19921;-58
2024/02/11 01:37:47;;;;;;;;;;;;;;;;;;4183232;28;19937;-57
2024/02/11 01:39:48;;;;;;;;;;;;;;;;;;4182971;28;20352;-58
2024/02/11 01:41:50;;;;;;;;;;;;;;;;;;4181798;28;19934;-58
2024/02/11 01:43:52;;;;;;;;;;;;;;;;;;4183031;28;19920;-58
2024/02/11 01:45:54;;;;;;;;;;;;;;;;;;4183007;28;20376;-58
2024/02/11 01:47:55;;;;;;;;;;;;;;;;;;4182960;28;19925;-58
2024/02/11 01:49:58;;;;;;;;;;;;;;;;;;4182669;28;20373;-57
2024/02/11 01:51:59;;;;;;;;;;;;;;;;;;4182871;28;19931;-58
2024/02/11 01:54:01;;;;;;;;;;;;;;;;;;4182777;28;20024;-58
2024/02/11 01:56:03;;;;;;;;;;;;;;;;;;4182843;28;19920;-58
2024/02/11 01:58:04;;;;;;;;;;;;;;;;;;4185819;28;19921;-58
2024/02/11 02:00:06;;;;;;;;;;;;;;;;;;4199287;28;19920;-58
2024/02/11 02:02:08;;;;;;;;;;;;;;;;;;4187805;28;19925;-57
2024/02/11 02:04:09;;;;;;;;;;;;;;;;;;4182357;28;20400;-59
2024/02/11 02:06:11;;;;;;;;;;;;;;;;;;4173944;28;19920;-59
2024/02/11 02:08:13;;;;;;;;;;;;;;;;;;4182899;28;20372;-60
2024/02/11 02:10:14;;;;;;;;;;;;;;;;;;4182605;28;19925;-60
2024/02/11 02:12:17;;;;;;;;;;;;;;;;;;4182770;28;19925;-60
2024/02/11 02:14:19;;;;;;;;;;;;;;;;;;4166180;28;19928;-60
2024/02/11 02:16:22;;;;;;;;;;;;;;;;;;4166333;28;20369;-59
2024/02/11 02:18:24;;;;;;;;;;;;;;;;;;4166081;28;20404;-59
2024/02/11 02:20:25;;;;;;;;;;;;;;;;;;4166102;28;19925;-59
2024/02/11 02:22:27;;;;;;;;;;;;;;;;;;4166025;28;19932;-59
2024/02/11 02:24:28;;;;;;;;;;;;;;;;;;4166535;28;19979;-59
2024/02/11 02:26:30;;;;;;;;;;;;;;;;;;4165937;28;20420;-59
2024/02/11 02:28:31;;;;;;;;;;;;;;;;;;4165894;28;19925;-60
2024/02/11 02:30:35;;;;;;;;;;;;;;;;;;4165694;28;19925;-59
2024/02/11 02:32:37;;;;;;;;;;;;;;;;;;4165779;28;19991;-60
2024/02/11 02:34:40;;;;;;;;;;;;;;;;;;4165753;28;19925;-59
2024/02/11 02:36:42;;;;;;;;;;;;;;;;;;4165793;28;19921;-59
2024/02/11 02:38:43;;;;;;;;;;;;;;;;;;4166015;28;20004;-59
2024/02/11 02:40:45;;;;;;;;;;;;;;;;;;4165682;28;19928;-60
2024/02/11 02:42:47;;;;;;;;;;;;;;;;;;4165780;28;20024;-59
2024/02/11 02:44:48;;;;;;;;;;;;;;;;;;4165653;28;19947;-59
2024/02/11 02:46:52;;;;;;;;;;;;;;;;;;4165549;28;19929;-58
2024/02/11 02:48:53;;;;;;;;;;;;;;;;;;4165656;28;20347;-59
2024/02/11 02:50:55;;;;;;;;;;;;;;;;;;4178152;28;19970;-59
2024/02/11 02:52:56;;;;;;;;;;;;;;;;;;4188426;28;20344;-59
2024/02/11 02:55:05;;;;;;;;;;;;;;;;;;4180715;28;20622;-59
2024/02/11 02:57:07;;;;;;;;;;;;;;;;;;4181291;28;19960;-59
2024/02/11 02:59:10;;;;;;;;;;;;;;;;;;4194129;28;19921;-58
2024/02/11 03:01:11;;;;;;;;;;;;;;;;;;4198497;28;20283;-59
2024/02/11 03:03:13;;;;;;;;;;;;;;;;;;4197707;28;19920;-59
2024/02/11 03:05:14;;;;;;;;;;;;;;;;;;4194050;28;20376;-59
2024/02/11 03:07:16;;;;;;;;;;;;;;;;;;4182038;28;19975;-59
2024/02/11 03:09:17;;;;;;;;;;;;;;;;;;4181617;28;19924;-60
2024/02/11 03:11:19;;;;;;;;;;;;;;;;;;4181631;28;20356;-59
2024/02/11 03:13:20;;;;;;;;;;;;;;;;;;4181862;28;20016;-59
2024/02/11 03:15:22;;;;;;;;;;;;;;;;;;4181458;28;19932;-59
2024/02/11 03:17:23;;;;;;;;;;;;;;;;;;4181750;28;19920;-59
2024/02/11 03:19:26;;;;;;;;;;;;;;;;;;4181558;28;19921;-59
2024/02/11 03:21:28;;;;;;;;;;;;;;;;;;4181480;28;19967;-59
2024/02/11 03:23:29;;;;;;;;;;;;;;;;;;4181531;28;19927;-59
2024/02/11 03:25:31;;;;;;;;;;;;;;;;;;4181394;28;19925;-60
2024/02/11 03:27:34;;;;;;;;;;;;;;;;;;4184302;28;20304;-59
2024/02/11 03:29:35;;;;;;;;;;;;;;;;;;4197083;28;19921;-59
2024/02/11 03:31:37;;;;;;;;;;;;;;;;;;4196413;28;19966;-59
2024/02/11 03:33:38;;;;;;;;;;;;;;;;;;4196266;28;19989;-59
2024/02/11 03:35:40;;;;;;;;;;;;;;;;;;4196377;28;19927;-59
2024/02/11 03:37:43;;;;;;;;;;;;;;;;;;4196558;28;19977;-59
2024/02/11 03:39:45;;;;;;;;;;;;;;;;;;4196602;28;19928;-59
2024/02/11 03:41:46;;;;;;;;;;;;;;;;;;4197016;28;19924;-59
2024/02/11 03:43:48;;;;;;;;;;;;;;;;;;4181688;28;19921;-59
2024/02/11 03:45:49;;;;;;;;;;;;;;;;;;4172893;28;19986;-59
2024/02/11 03:47:50;;;;;;;;;;;;;;;;;;4188381;28;19943;-59
2024/02/11 03:49:52;;;;;;;;;;;;;;;;;;4197473;28;19921;-59
2024/02/11 03:51:55;;;;;;;;;;;;;;;;;;4196025;28;19920;-59
2024/02/11 03:53:59;;;;;;;;;;;;;;;;;;4181034;28;19925;-59
2024/02/11 03:56:00;;;;;;;;;;;;;;;;;;4180989;28;19978;-59
2024/02/11 03:58:02;;;;;;;;;;;;;;;;;;4183703;28;19921;-59
2024/02/11 04:00:09;;;;;;;;;;;;;;;;;;4197411;28;20350;-59
2024/02/11 04:02:11;;;;;;;;;;;;;;;;;;4187723;28;20019;-59
2024/02/11 04:04:14;;;;;;;;;;;;;;;;;;4181255;28;19921;-60
2024/02/11 04:06:17;;;;;;;;;;;;;;;;;;4181057;28;19974;-60
2024/02/11 04:08:21;;;;;;;;;;;;;;;;;;4179741;28;20371;-59
2024/02/11 04:10:28;;;;;;;;;;;;;;;;;;4181076;28;19921;-59
2024/02/11 04:12:30;;;;;;;;;;;;;;;;;;4179764;28;19971;-59
2024/02/11 04:14:32;;;;;;;;;;;;;;;;;;4180880;28;19971;-60
2024/02/11 04:16:33;;;;;;;;;;;;;;;;;;4180571;28;19925;-60
2024/02/11 04:18:35;;;;;;;;;;;;;;;;;;4181020;28;19982;-59
2024/02/11 04:20:37;;;;;;;;;;;;;;;;;;4180829;28;20449;-59
2024/02/11 04:22:40;;;;;;;;;;;;;;;;;;4180809;28;20296;-59
2024/02/11 04:24:45;;;;;;;;;;;;;;;;;;4181067;28;19930;-59
2024/02/11 04:26:51;;;;;;;;;;;;;;;;;;4180948;28;19956;-58
2024/02/11 04:28:53;;;;;;;;;;;;;;;;;;4180759;28;19928;-58
2024/02/11 04:30:55;;;;;;;;;;;;;;;;;;4180893;28;19920;-57
2024/02/11 04:33:03;;;;;;;;;;;;;;;;;;4180779;28;19921;-58
2024/02/11 04:35:05;;;;;;;;;;;;;;;;;;4180715;28;20342;-57
2024/02/11 04:37:06;;;;;;;;;;;;;;;;;;4180664;28;19927;-58
2024/02/11 04:39:08;;;;;;;;;;;;;;;;;;4180651;28;19924;-58
2024/02/11 04:41:10;;;;;;;;;;;;;;;;;;4180742;28;19939;-58
2024/02/11 04:43:12;;;;;;;;;;;;;;;;;;4180561;28;20024;-57
2024/02/11 04:45:15;;;;;;;;;;;;;;;;;;4180815;28;19974;-57
2024/02/11 04:47:17;;;;;;;;;;;;;;;;;;4180622;28;19920;-58
2024/02/11 04:49:18;;;;;;;;;;;;;;;;;;4180520;28;20355;-58
2024/02/11 04:51:22;;;;;;;;;;;;;;;;;;4180657;28;20296;-57
2024/02/11 04:53:25;;;;;;;;;;;;;;;;;;4180843;28;19921;-58
2024/02/11 04:55:27;;;;;;;;;;;;;;;;;;4180492;28;19968;-57
2024/02/11 04:57:32;;;;;;;;;;;;;;;;;;4180488;28;19960;-58
2024/02/11 04:59:35;;;;;;;;;;;;;;;;;;4180537;28;19921;-58
2024/02/11 05:01:36;;;;;;;;;;;;;;;;;;4180676;28;19924;-58
2024/02/11 05:03:40;;;;;;;;;;;;;;;;;;4180458;28;20329;-58
2024/02/11 05:05:41;;;;;;;;;;;;;;;;;;4180407;28;19943;-58
2024/02/11 05:07:44;;;;;;;;;;;;;;;;;;4180528;28;19921;-58
2024/02/11 05:09:46;;;;;;;;;;;;;;;;;;4180337;28;20384;-58
2024/02/11 05:11:48;;;;;;;;;;;;;;;;;;4180543;28;19921;-58
2024/02/11 05:13:50;;;;;;;;;;;;;;;;;;4180524;28;19943;-57
2024/02/11 05:15:53;;;;;;;;;;;;;;;;;;4180509;28;19927;-58
2024/02/11 05:17:55;;;;;;;;;;;;;;;;;;4180353;28;20300;-57
2024/02/11 05:19:56;;;;;;;;;;;;;;;;;;4180319;28;19970;-57
2024/02/11 05:21:58;;;;;;;;;;;;;;;;;;4180320;28;20377;-58
2024/02/11 05:24:00;;;;;;;;;;;;;;;;;;4180420;28;19935;-57
2024/02/11 05:26:02;;;;;;;;;;;;;;;;;;4180249;28;19928;-58
2024/02/11 05:28:04;;;;;;;;;;;;;;;;;;4182995;28;19927;-57
2024/02/11 05:30:08;;;;;;;;;;;;;;;;;;4183300;28;19924;-58
2024/02/11 05:32:11;;;;;;;;;;;;;;;;;;4183223;28;19955;-58
2024/02/11 05:34:13;;;;;;;;;;;;;;;;;;4183643;28;19924;-58
2024/02/11 05:36:15;;;;;;;;;;;;;;;;;;4183204;28;19924;-59
2024/02/11 05:38:18;;;;;;;;;;;;;;;;;;4183433;28;19921;-58
2024/02/11 05:40:19;;;;;;;;;;;;;;;;;;4194554;28;19924;-58
2024/02/11 05:42:22;;;;;;;;;;;;;;;;;;4199721;28;20019;-58
2024/02/11 05:44:24;;;;;;;;;;;;;;;;;;4199771;28;20031;-58
2024/02/11 05:46:25;;;;;;;;;;;;;;;;;;4196835;28;20494;-58
2024/02/11 05:48:27;;;;;;;;;;;;;;;;;;4183150;28;19959;-57
2024/02/11 05:50:28;;;;;;;;;;;;;;;;;;4182987;28;19964;-58
2024/02/11 05:52:30;;;;;;;;;;;;;;;;;;4183059;28;20381;-58
2024/02/11 05:54:35;;;;;;;;;;;;;;;;;;4183349;28;19924;-58
2024/02/11 05:56:36;;;;;;;;;;;;;;;;;;4182943;28;20376;-58
2024/02/11 05:58:38;;;;;;;;;;;;;;;;;;4190499;28;19920;-58
2024/02/11 06:00:42;;;;;;;;;;;;;;;;;;4195811;28;19920;-58
2024/02/11 06:02:45;;;;;;;;;;;;;;;;;;4166193;28;19943;-59
2024/02/11 06:04:47;;;;;;;;;;;;;;;;;;4166374;28;20349;-58
2024/02/11 06:06:49;;;;;;;;;;;;;;;;;;4166407;28;19927;-58
2024/02/11 06:08:50;;;;;;;;;;;;;;;;;;4166517;28;20337;-58
2024/02/11 06:10:52;;;;;;;;;;;;;;;;;;4166231;28;19928;-58
2024/02/11 06:12:54;;;;;;;;;;;;;;;;;;4166388;28;20047;-58
2024/02/11 06:14:56;;;;;;;;;;;;;;;;;;4166427;28;19944;-58
2024/02/11 06:16:58;;;;;;;;;;;;;;;;;;4166216;28;20300;-57
2024/02/11 06:18:59;;;;;;;;;;;;;;;;;;4166313;28;19983;-57
2024/02/11 06:21:01;;;;;;;;;;;;;;;;;;4166287;28;19947;-58
2024/02/11 06:23:05;;;;;;;;;;;;;;;;;;4166264;28;19920;-58
2024/02/11 06:25:08;;;;;;;;;;;;;;;;;;4166179;28;19932;-58
2024/02/11 06:27:10;;;;;;;;;;;;;;;;;;4166127;28;19924;-58
2024/02/11 06:29:11;;;;;;;;;;;;;;;;;;4166074;28;19921;-58
2024/02/11 06:31:13;;;;;;;;;;;;;;;;;;4166000;28;20373;-58
2024/02/11 06:33:15;;;;;;;;;;;;;;;;;;4165875;28;20438;-58
2024/02/11 06:35:16;;;;;;;;;;;;;;;;;;4167895;28;19963;-58
2024/02/11 06:37:19;;;;;;;;;;;;;;;;;;4199238;28;19928;-58
2024/02/11 06:39:21;;;;;;;;;;;;;;;;;;4171239;28;19921;-58
2024/02/11 06:41:23;;;;;;;;;;;;;;;;;;4173072;28;20385;-58
2024/02/11 06:43:25;;;;;;;;;;;;;;;;;;4174807;28;20015;-56
2024/02/11 06:45:28;;;;;;;;;;;;;;;;;;4189667;28;19920;-58
2024/02/11 06:47:54;;;;;;;;;;;;;;;;;;4182123;28;19923;-58
2024/02/11 06:49:56;;;;;;;;;;;;;;;;;;4181821;28;20334;-58
2024/02/11 06:51:58;;;;;;;;;;;;;;;;;;4182124;28;19920;-57
2024/02/11 06:54:00;;;;;;;;;;;;;;;;;;4182106;28;19975;-57
2024/02/11 06:56:02;;;;;;;;;;;;;;;;;;4181909;28;20019;-58
2024/02/11 06:58:03;;;;;;;;;;;;;;;;;;4184815;28;19986;-58
2024/02/11 07:00:08;;;;;;;;;;;;;;;;;;4175675;28;20040;-58
2024/02/11 07:02:10;;;;;;;;;;;;;;;;;;4166322;28;20393;-58
2024/02/11 07:04:15;;;;;;;;;;;;;;;;;;4181941;28;19927;-58
2024/02/11 07:06:16;;;;;;;;;;;;;;;;;;4181344;28;20399;-57
2024/02/11 07:08:18;;;;;;;;;;;;;;;;;;4181924;28;20011;-58
2024/02/11 07:10:19;;;;;;;;;;;;;;;;;;4182059;28;19925;-58
2024/02/11 07:12:21;;;;;;;;;;;;;;;;;;4181784;28;19936;-58
2024/02/11 07:14:23;;;;;;;;;;;;;;;;;;4181700;28;20288;-58
2024/02/11 07:16:27;;;;;;;;;;;;;;;;;;4181616;28;19928;-58
2024/02/11 07:18:29;;;;;;;;;;;;;;;;;;4181588;28;19960;-58
2024/02/11 07:20:31;;;;;;;;;;;;;;;;;;4179837;28;19935;-58
2024/02/11 07:22:33;;;;;;;;;;;;;;;;;;4178758;28;19943;-58
2024/02/11 07:24:35;;;;;;;;;;;;;;;;;;4181770;28;19930;-59
2024/02/11 07:26:38;;;;;;;;;;;;;;;;;;4181666;28;20016;-58
2024/02/11 07:28:39;;;;;;;;;;;;;;;;;;4181520;28;20007;-57
2024/02/11 07:30:42;;;;;;;;;;;;;;;;;;4181572;28;19927;-58
2024/02/11 07:32:44;;;;;;;;;;;;;;;;;;4191852;28;19924;-58
2024/02/11 07:34:47;;;;;;;;;;;;;;;;;;4198001;28;19946;-57
2024/02/11 07:36:48;;;;;;;;;;;;;;;;;;4188466;28;20012;-58
2024/02/11 07:38:51;;;;;;;;;;;;;;;;;;4180950;28;19921;-58
2024/02/11 07:40:53;;;;;;;;;;;;;;;;;;4174625;28;19928;-57
2024/02/11 07:42:55;;;;;;;;;;;;;;;;;;4181173;28;19921;-58
2024/02/11 07:44:56;;;;;;;;;;;;;;;;;;4181509;28;19925;-58
2024/02/11 07:46:59;;;;;;;;;;;;;;;;;;4181288;28;19921;-58
2024/02/11 07:49:03;;;;;;;;;;;;;;;;;;4180338;28;19921;-58
2024/02/11 07:51:06;;;;;;;;;;;;;;;;;;4179910;28;20015;-58
2024/02/11 07:53:07;;;;;;;;;;;;;;;;;;4177432;28;19920;-58
2024/02/11 07:55:11;;;;;;;;;;;;;;;;;;4173326;28;19975;-58
2024/02/11 07:57:12;;;;;;;;;;;;;;;;;;4166497;28;20276;-58
2024/02/11 07:59:14;;;;;;;;;;;;;;;;;;4181201;28;19967;-57
2024/02/11 08:01:16;;;;;;;;;;;;;;;;;;4181195;28;19921;-58
2024/02/11 08:03:20;;;;;;;;;;;;;;;;;;4172980;28;20023;-58
2024/02/11 08:05:24;;;;;;;;;;;;;;;;;;4181013;28;20368;-58
2024/02/11 08:07:26;;;;;;;;;;;;;;;;;;4180944;28;19932;-58
2024/02/11 08:09:28;;;;;;;;;;;;;;;;;;4175828;28;20353;-59
2024/02/11 08:11:30;;;;;;;;;;;;;;;;;;4179907;28;19921;-58
2024/02/11 08:13:32;;;;;;;;;;;;;;;;;;4181033;28;20269;-58
2024/02/11 08:15:35;;;;;;;;;;;;;;;;;;4180936;28;19924;-58
2024/02/11 08:17:36;;;;;;;;;;;;;;;;;;4174403;28;19974;-58
2024/02/11 08:19:38;;;;;;;;;;;;;;;;;;4180711;28;19960;-58
2024/02/11 08:21:39;;;;;;;;;;;;;;;;;;4180939;28;20407;-57
2024/02/11 08:23:41;;;;;;;;;;;;;;;;;;4179752;28;20351;-58
2024/02/11 08:25:43;;;;;;;;;;;;;;;;;;4180786;28;19921;-58
2024/02/11 08:27:45;;;;;;;;;;;;;;;;;;4181069;28;19921;-58
2024/02/11 08:29:48;;;;;;;;;;;;;;;;;;4180783;28;20388;-58
2024/02/11 08:31:50;;;;;;;;;;;;;;;;;;4180739;28;20331;-58
2024/02/11 08:33:51;;;;;;;;;;;;;;;;;;4174410;28;19964;-58
2024/02/11 08:35:53;;;;;;;;;;;;;;;;;;4169656;28;19928;-58
2024/02/11 08:37:57;;;;;;;;;;;;;;;;;;4170418;28;19921;-58
2024/02/11 08:39:59;;;;;;;;;;;;;;;;;;4175443;28;19921;-58
2024/02/11 08:42:05;;;;;;;;;;;;;;;;;;4166757;28;20316;-58
2024/02/11 08:44:06;;;;;;;;;;;;;;;;;;4171243;28;19962;-58
2024/02/11 08:46:10;;;;;;;;;;;;;;;;;;4172624;28;19920;-58
2024/02/11 08:48:12;;;;;;;;;;;;;;;;;;4171748;28;19951;-58
2024/02/11 08:50:14;;;;;;;;;;;;;;;;;;4174290;28;20514;-57
2024/02/11 08:52:16;;;;;;;;;;;;;;;;;;4173818;28;20011;-57
2024/02/11 08:54:18;;;;;;;;;;;;;;;;;;4173659;28;19936;-57
2024/02/11 08:56:20;;;;;;;;;;;;;;;;;;4162904;28;19921;-57
2024/02/11 08:58:22;;;;;;;;;;;;;;;;;;4181411;28;19930;-57
2024/02/11 09:00:25;;;;;;;;;;;;;;;;;;4196953;28;19964;-58
2024/02/11 09:02:26;;;;;;;;;;;;;;;;;;4197451;28;19924;-57
2024/02/11 09:04:31;;;;;;;;;;;;;;;;;;4187876;28;20023;-56
2024/02/11 09:06:34;;;;;;;;;;;;;;;;;;4180845;28;19921;-56
2024/02/11 09:08:35;;;;;;;;;;;;;;;;;;4183690;28;19925;-57
2024/02/11 09:10:37;;;;;;;;;;;;;;;;;;4182466;28;19924;-57
2024/02/11 09:12:38;;;;;;;;;;;;;;;;;;4183488;28;19921;-57
2024/02/11 09:14:40;;;;;;;;;;;;;;;;;;4177533;28;19925;-57
2024/02/11 09:16:41;;;;;;;;;;;;;;;;;;4183576;28;19968;-57
2024/02/11 09:18:43;;;;;;;;;;;;;;;;;;4183521;28;20302;-56
2024/02/11 09:20:44;;;;;;;;;;;;;;;;;;4183325;28;19948;-56
2024/02/11 09:22:46;;;;;;;;;;;;;;;;;;4183685;28;19931;-57
2024/02/11 09:24:48;;;;;;;;;;;;;;;;;;4183439;28;20343;-57
2024/02/11 09:26:52;;;;;;;;;;;;;;;;;;4177258;28;19963;-56
2024/02/11 09:28:55;;;;;;;;;;;;;;;;;;4176848;28;19925;-56
2024/02/11 09:30:57;;;;;;;;;;;;;;;;;;4181909;28;20446;-56
2024/02/11 09:32:58;;;;;;;;;;;;;;;;;;4183151;28;19920;-55
2024/02/11 09:35:00;;;;;;;;;;;;;;;;;;4183191;28;19921;-56
2024/02/11 09:37:03;;;;;;;;;;;;;;;;;;4183188;28;19947;-57
2024/02/11 09:39:04;;;;;;;;;;;;;;;;;;4183215;28;19930;-57
2024/02/11 09:41:06;;;;;;;;;;;;;;;;;;4182094;28;19923;-57
2024/02/11 09:43:07;;;;;;;;;;;;;;;;;;4174886;28;19964;-57
2024/02/11 09:45:08;;;;;;;;;;;;;;;;;;4180475;28;20016;-57
2024/02/11 09:47:10;;;;;;;;;;;;;;;;;;4178517;28;20435;-56
2024/02/11 09:49:11;;;;;;;;;;;;;;;;;;4182943;28;19925;-57
2024/02/11 09:51:13;;;;;;;;;;;;;;;;;;4182371;28;19967;-57
2024/02/11 09:53:15;;;;;;;;;;;;;;;;;;4183029;28;19945;-57
2024/02/11 09:55:19;;;;;;;;;;;;;;;;;;4176556;28;19983;-56
2024/02/11 09:57:21;;;;;;;;;;;;;;;;;;4182482;28;19927;-56
2024/02/11 09:59:26;;;;;;;;;;;;;;;;;;4196909;28;20303;-57
2024/02/11 10:01:28;;;;;;;;;;;;;;;;;;4198044;28;19999;-57
2024/02/11 10:03:29;;;;;;;;;;;;;;;;;;4177232;28;19924;-57
2024/02/11 10:05:31;;;;;;;;;;;;;;;;;;4182702;28;19924;-57
2024/02/11 10:07:34;;;;;;;;;;;;;;;;;;4183120;28;19974;-57
2024/02/11 10:09:35;;;;;;;;;;;;;;;;;;4182729;28;19921;-57
2024/02/11 10:11:37;;;;;;;;;;;;;;;;;;4182761;28;19931;-57
2024/02/11 10:13:38;;;;;;;;;;;;;;;;;;4181544;28;19986;-57
2024/02/11 10:15:43;;;;;;;;;;;;;;;;;;4183123;28;19921;-57
2024/02/11 10:17:44;;;;;;;;;;;;;;;;;;4182423;28;19924;-57
2024/02/11 10:19:46;;;;;;;;;;;;;;;;;;4182573;28;19921;-57
2024/02/11 10:21:48;;;;;;;;;;;;;;;;;;4195773;28;19920;-57
2024/02/11 10:23:50;;;;;;;;;;;;;;;;;;4199420;28;19920;-57
2024/02/11 10:25:53;;;;;;;;;;;;;;;;;;4199170;28;19920;-56
2024/02/11 10:27:55;;;;;;;;;;;;;;;;;;4194305;28;20395;-57
2024/02/11 10:29:57;;;;;;;;;;;;;;;;;;4182516;28;19924;-57
2024/02/11 10:31:59;;;;;;;;;;;;;;;;;;4179032;28;20361;-56
2024/02/11 10:34:01;;;;;;;;;;;;;;;;;;4180010;28;19928;-57
2024/02/11 10:36:03;;;;;;;;;;;;;;;;;;4180035;28;19921;-56
2024/02/11 10:38:04;;;;;;;;;;;;;;;;;;4174559;28;19924;-57
2024/02/11 10:40:06;;;;;;;;;;;;;;;;;;4182076;28;20411;-56
2024/02/11 10:42:10;;;;;;;;;;;;;;;;;;4176281;28;19925;-57
2024/02/11 10:44:12;;;;;;;;;;;;;;;;;;4181566;28;19936;-57
2024/02/11 10:46:14;;;;;;;;;;;;;;;;;;4181823;28;20021;-56
2024/02/11 10:48:17;;;;;;;;;;;;;;;;;;4181901;28;19990;-56
2024/02/11 10:50:18;;;;;;;;;;;;;;;;;;4180334;28;19925;-57
2024/02/11 10:52:20;;;;;;;;;;;;;;;;;;4176857;28;20023;-56
2024/02/11 10:54:24;;;;;;;;;;;;;;;;;;4181653;28;19932;-56
2024/02/11 10:56:26;;;;;;;;;;;;;;;;;;4181953;28;20296;-57
2024/02/11 10:58:29;;;;;;;;;;;;;;;;;;4187902;28;20011;-56
2024/02/11 11:00:31;;;;;;;;;;;;;;;;;;4181163;28;19950;-57
2024/02/11 11:02:34;;;;;;;;;;;;;;;;;;4180917;28;19921;-57
2024/02/11 11:04:37;;;;;;;;;;;;;;;;;;4178475;28;19928;-58
2024/02/11 11:06:38;;;;;;;;;;;;;;;;;;4179623;28;19928;-57
2024/02/11 11:08:41;;;;;;;;;;;;;;;;;;4180698;28;19921;-58
2024/02/11 11:10:43;;;;;;;;;;;;;;;;;;4181676;28;19928;-58
2024/02/11 11:12:44;;;;;;;;;;;;;;;;;;4171829;28;20336;-59
2024/02/11 11:14:48;;;;;;;;;;;;;;;;;;4176957;28;19924;-58
2024/02/11 11:16:52;;;;;;;;;;;;;;;;;;4180246;28;20032;-59
2024/02/11 11:18:53;;;;;;;;;;;;;;;;;;4172795;28;19937;-58
2024/02/11 11:20:55;;;;;;;;;;;;;;;;;;4178365;28;19928;-59
2024/02/11 11:22:56;;;;;;;;;;;;;;;;;;4180981;28;20011;-59
2024/02/11 11:24:59;;;;;;;;;;;;;;;;;;4177385;28;19947;-63
2024/02/11 11:27:00;;;;;;;;;;;;;;;;;;4175095;28;20108;-64
2024/02/11 11:29:02;;;;;;;;;;;;;;;;;;4176895;28;19931;-65
2024/02/11 11:31:05;;;;;;;;;;;;;;;;;;4179152;28;20295;-63
2024/02/11 11:33:09;;;;;;;;;;;;;;;;;;4180304;28;19990;-63
2024/02/11 11:35:12;;;;;;;;;;;;;;;;;;4179766;28;20298;-68
2024/02/11 11:37:15;;;;;;;;;;;;;;;;;;4179641;28;19921;-68
2024/02/11 11:39:18;;;;;;;;;;;;;;;;;;4179239;28;19921;-68
2024/02/11 11:41:20;;;;;;;;;;;;;;;;;;4179653;28;19971;-68
2024/02/11 11:43:23;;;;;;;;;;;;;;;;;;4179726;28;19924;-68
2024/02/11 11:45:25;;;;;;;;;;;;;;;;;;4177751;28;19982;-68
2024/02/11 11:47:26;;;;;;;;;;;;;;;;;;4179578;28;20326;-68
2024/02/11 11:49:28;;;;;;;;;;;;;;;;;;4177487;28;19974;-67
2024/02/11 11:51:30;;;;;;;;;;;;;;;;;;4179567;28;19921;-68
2024/02/11 11:53:34;;;;;;;;;;;;;;;;;;4179480;28;19929;-67
2024/02/11 11:55:36;;;;;;;;;;;;;;;;;;4179395;28;20400;-68
2024/02/11 11:57:38;;;;;;;;;;;;;;;;;;4177359;28;19920;-67
2024/02/11 11:59:39;;;;;;;;;;;;;;;;;;4176275;28;19943;-67
2024/02/11 12:01:41;;;;;;;;;;;;;;;;;;4173833;28;19971;-67
2024/02/11 12:03:43;;;;;;;;;;;;;;;;;;4174177;28;19928;-67
2024/02/11 12:05:44;;;;;;;;;;;;;;;;;;4177217;28;20346;-67
2024/02/11 12:07:46;;;;;;;;;;;;;;;;;;4179186;28;19924;-67
2024/02/11 12:09:47;;;;;;;;;;;;;;;;;;4183704;28;20011;-68
2024/02/11 12:11:49;;;;;;;;;;;;;;;;;;4180549;28;19931;-68
2024/02/11 12:13:50;;;;;;;;;;;;;;;;;;4179211;28;19920;-66
2024/02/11 12:15:52;;;;;;;;;;;;;;;;;;4180345;28;19933;-68
2024/02/11 12:17:54;;;;;;;;;;;;;;;;;;4180494;28;19921;-67
2024/02/11 12:19:57;;;;;;;;;;;;;;;;;;4179790;28;19986;-68
2024/02/11 12:22:00;;;;;;;;;;;;;;;;;;4177883;28;19921;-68
2024/02/11 12:24:04;;;;;;;;;;;;;;;;;;4188118;28;19924;-67
2024/02/11 12:26:06;;;;;;;;;;;;;;;;;;4183878;28;20492;-67
2024/02/11 12:28:19;;;;;;;;;;;;;;;;;;4178270;28;20292;-67
2024/02/11 12:30:20;;;;;;;;;;;;;;;;;;4179196;28;19924;-67
2024/02/11 12:32:22;;;;;;;;;;;;;;;;;;4180761;28;20484;-67
2024/02/11 12:34:25;;;;;;;;;;;;;;;;;;4180985;28;20392;-67
2024/02/11 12:36:27;;;;;;;;;;;;;;;;;;4177222;28;19925;-66
2024/02/11 12:38:29;;;;;;;;;;;;;;;;;;4181468;28;19928;-65
2024/02/11 12:40:30;;;;;;;;;;;;;;;;;;4181172;28;19935;-66
2024/02/11 12:42:32;;;;;;;;;;;;;;;;;;4182937;28;19974;-67
2024/02/11 12:44:34;;;;;;;;;;;;;;;;;;4183949;28;20434;-67
2024/02/11 12:46:35;;;;;;;;;;;;;;;;;;4182469;28;19925;-66
2024/02/11 12:48:37;;;;;;;;;;;;;;;;;;4180783;28;19924;-65
2024/02/11 12:50:38;;;;;;;;;;;;;;;;;;4180988;28;20392;-67
2024/02/11 12:52:40;;;;;;;;;;;;;;;;;;4181603;28;20384;-66
2024/02/11 12:54:42;;;;;;;;;;;;;;;;;;4175874;28;20271;-61
2024/02/11 12:56:43;;;;;;;;;;;;;;;;;;4179935;28;20339;-60
2024/02/11 12:58:45;;;;;;;;;;;;;;;;;;4186968;28;20458;-61
2024/02/11 13:00:46;;;;;;;;;;;;;;;;;;4181362;28;19974;-61
2024/02/11 13:02:48;;;;;;;;;;;;;;;;;;4176031;28;20002;-61
2024/02/11 13:04:49;;;;;;;;;;;;;;;;;;4182980;28;19921;-61
2024/02/11 13:06:51;;;;;;;;;;;;;;;;;;4175354;28;20012;-61
2024/02/11 13:08:52;;;;;;;;;;;;;;;;;;4167445;28;20400;-60
2024/02/11 13:10:54;;;;;;;;;;;;;;;;;;4167330;28;19925;-61
2024/02/11 13:12:55;;;;;;;;;;;;;;;;;;4167267;28;20027;-60
2024/02/11 13:14:57;;;;;;;;;;;;;;;;;;4169453;28;19925;-61
2024/02/11 13:16:59;;;;;;;;;;;;;;;;;;4175473;28;19921;-61
2024/02/11 13:19:02;;;;;;;;;;;;;;;;;;4186448;28;19921;-61
2024/02/11 13:21:04;;;;;;;;;;;;;;;;;;4183373;28;19962;-61
2024/02/11 13:23:05;;;;;;;;;;;;;;;;;;4182907;28;19987;-62
2024/02/11 13:25:10;;;;;;;;;;;;;;;;;;4183622;28;20321;-61
2024/02/11 13:27:13;;;;;;;;;;;;;;;;;;4183393;28;19963;-61
2024/02/11 13:29:14;;;;;;;;;;;;;;;;;;4183541;28;19924;-60
2024/02/11 13:31:16;;;;;;;;;;;;;;;;;;4183113;28;20339;-61
2024/02/11 13:33:31;;;;;;;;;;;;;;;;;;4183465;28;19921;-60
2024/02/11 13:35:33;;;;;;;;;;;;;;;;;;4182120;28;20269;-61
2024/02/11 13:37:35;;;;;;;;;;;;;;;;;;4182493;28;20334;-61
2024/02/11 13:39:36;;;;;;;;;;;;;;;;;;4182631;28;19921;-60
2024/02/11 13:41:38;;;;;;;;;;;;;;;;;;4179854;28;19966;-61
2024/02/11 13:43:39;;;;;;;;;;;;;;;;;;4182124;28;20395;-61
2024/02/11 13:45:43;;;;;;;;;;;;;;;;;;4180851;28;20016;-60
2024/02/11 13:47:44;;;;;;;;;;;;;;;;;;4175274;28;19920;-61
2024/02/11 13:49:46;;;;;;;;;;;;;;;;;;4169997;28;19961;-61
2024/02/11 13:51:48;;;;;;;;;;;;;;;;;;4174340;28;19932;-61
2024/02/11 13:53:49;;;;;;;;;;;;;;;;;;4171294;28;20285;-60